Schneifelwetter: Wetterstation Hallschlag, 537 m . NN
Wetterdaten: Montag, 23.06.2008
Datum Zeit Temp. A. Temp. 2 Feuchte A. Luftdruck Regen Wind Richtung Richtung Sonnenschein Helligkeit T Regen Taupunkt Windchill
23.06.2008 00:01 16,9 C 16,6 C 92 % 1015 hPa 0,0 l/m 23,0 km/h (4 Bft) W45 275 0 min 0 lux 0,00 min 15,6 C 11,6 C
23.06.2008 00:16 16,4 C 16,0 C 90 % 1015 hPa 10,0 l/m 22,3 km/h (4 Bft) W22.5 265 0 min 0 lux 15,00 min 14,8 C 11,0 C
23.06.2008 00:31 15,9 C 15,7 C 91 % 1015 hPa 0,0 l/m 17,4 km/h (3 Bft) W45 260 0 min 0 lux 0,00 min 14,4 C 11,6 C
23.06.2008 00:46 15,5 C 15,3 C 90 % 1015 hPa 0,0 l/m 28,7 km/h (4 Bft) W22.5 270 0 min 0 lux 0,00 min 13,9 C 8,6 C
23.06.2008 01:01 15,2 C 15,1 C 91 % 1015 hPa 0,0 l/m 13,9 km/h (3 Bft) W22.5 260 0 min 0 lux 0,00 min 13,7 C 11,8 C
23.06.2008 01:16 15,1 C 14,9 C 91 % 1015 hPa 0,0 l/m 14,1 km/h (3 Bft) W-SW22.5 255 0 min 0 lux 0,00 min 13,6 C 11,6 C
23.06.2008 01:31 15,0 C 14,6 C 91 % 1015 hPa 0,0 l/m 18,4 km/h (3 Bft) W22.5 260 0 min 0 lux 0,00 min 13,5 C 10,2 C
23.06.2008 01:46 14,5 C 14,2 C 90 % 1015 hPa 0,0 l/m 19,6 km/h (3 Bft) W22.5 260 0 min 0 lux 0,00 min 12,9 C 9,2 C
23.06.2008 02:01 14,2 C 14,0 C 91 % 1015 hPa 0,0 l/m 21,0 km/h (4 Bft) W22.5 265 0 min 0 lux 0,00 min 12,8 C 8,5 C
23.06.2008 02:16 13,9 C 13,5 C 90 % 1016 hPa 0,0 l/m 26,5 km/h (4 Bft) W45 260 0 min 0 lux 0,00 min 12,3 C 6,8 C
23.06.2008 02:31 13,6 C 13,3 C 90 % 1016 hPa 0,0 l/m 22,3 km/h (4 Bft) W-SW45 255 0 min 0 lux 0,00 min 12,0 C 7,3 C
23.06.2008 02:46 13,1 C 12,7 C 89 % 1016 hPa 0,0 l/m 20,3 km/h (4 Bft) W-SW45 255 0 min 0 lux 0,00 min 11,3 C 7,2 C
23.06.2008 03:01 12,5 C 12,1 C 88 % 1016 hPa 0,0 l/m 21,0 km/h (4 Bft) W45 260 0 min 0 lux 0,00 min 10,6 C 6,2 C
23.06.2008 03:16 12,1 C 11,7 C 89 % 1016 hPa 0,0 l/m 16,8 km/h (3 Bft) W45 260 0 min 0 lux 0,00 min 10,3 C 7,0 C
23.06.2008 03:31 11,6 C 11,1 C 87 % 1016 hPa 0,0 l/m 24,3 km/h (4 Bft) W-SW45 255 0 min 0 lux 0,00 min 9,5 C 4,2 C
23.06.2008 03:46 10,8 C 10,1 C 87 % 1016 hPa 0,0 l/m 17,2 km/h (3 Bft) W-SW45 250 0 min 0 lux 0,00 min 8,7 C 5,3 C
23.06.2008 04:01 10,2 C 9,4 C 87 % 1016 hPa 0,0 l/m 19,3 km/h (3 Bft) SW22.5 235 0 min 0 lux 0,00 min 8,1 C 3,8 C
23.06.2008 04:16 9,6 C 8,7 C 86 % 1016 hPa 0,0 l/m 17,1 km/h (3 Bft) W-SW22.5 245 0 min 0 lux 0,00 min 7,4 C 3,8 C
23.06.2008 04:31 8,9 C 7,7 C 85 % 1016 hPa 0,0 l/m 3,2 km/h (1 Bft) W 265 0 min 0 lux 0,00 min 6,5 C 8,9 C
23.06.2008 04:46 8,3 C 6,9 C 86 % 1016 hPa 0,0 l/m 0,7 km/h (0 Bft) W 265 0 min 0 lux 0,00 min 6,1 C 8,3 C
23.06.2008 05:01 7,7 C 6,2 C 87 % 1017 hPa 0,0 l/m 7,0 km/h (2 Bft) W-SW22.5 255 0 min 82 lux 0,00 min 5,7 C 7,2 C
23.06.2008 05:16 7,3 C 5,6 C 87 % 1017 hPa 0,0 l/m 5,2 km/h (1 Bft) W-SW 240 0 min 303 lux 0,00 min 5,3 C 7,3 C
23.06.2008 05:31 7,3 C 5,7 C 89 % 1017 hPa 0,0 l/m 11,0 km/h (2 Bft) W-SW22.5 255 0 min 980 lux 0,00 min 5,6 C 4,0 C
23.06.2008 05:46 7,1 C 5,4 C 89 % 1017 hPa 0,0 l/m 7,2 km/h (2 Bft) W-SW 255 0 min 4,43 klux 0,00 min 5,4 C 6,4 C
23.06.2008 06:01 7,2 C 5,2 C 89 % 1017 hPa 0,0 l/m 4,3 km/h (1 Bft) W-SW 255 0 min 8,12 klux 0,00 min 5,5 C 7,2 C
23.06.2008 06:17 7,3 C 5,1 C 90 % 1017 hPa 0,0 l/m 0,7 km/h (0 Bft) W-SW 255 0 min 13,0 klux 0,00 min 5,8 C 7,3 C
23.06.2008 06:32 8,7 C 5,4 C 88 % 1017 hPa 0,0 l/m 10,8 km/h (2 Bft) W-SW22.5 255 0 min 17,6 klux 0,00 min 6,8 C 5,7 C
23.06.2008 06:46 10,8 C 6,0 C 82 % 1017 hPa 0,0 l/m 14,8 km/h (3 Bft) W-SW22.5 255 0 min 21,8 klux 0,00 min 7,9 C 6,2 C
23.06.2008 07:01 12,1 C 6,5 C 77 % 1017 hPa 0,0 l/m 16,5 km/h (3 Bft) W-SW22.5 245 0 min 25,3 klux 0,00 min 8,2 C 7,1 C
23.06.2008 07:16 13,4 C 7,2 C 76 % 1017 hPa 0,0 l/m 13,0 km/h (3 Bft) W22.5 260 0 min 29,6 klux 0,00 min 9,3 C 10,0 C
23.06.2008 07:31 14,4 C 8,2 C 72 % 1018 hPa 0,0 l/m 16,7 km/h (3 Bft) W-SW22.5 250 0 min 35,1 klux 0,00 min 9,4 C 9,9 C
23.06.2008 07:47 14,6 C 8,7 C 71 % 1018 hPa 0,0 l/m 18,2 km/h (3 Bft) W-SW22.5 255 0 min 36,9 klux 0,00 min 9,4 C 9,7 C
23.06.2008 08:02 14,3 C 9,5 C 71 % 1018 hPa 0,0 l/m 16,9 km/h (3 Bft) W45 265 0 min 41,0 klux 0,00 min 9,1 C 9,7 C
23.06.2008 08:16 14,8 C 10,3 C 71 % 1018 hPa 0,0 l/m 19,8 km/h (3 Bft) W22.5 260 0 min 45,1 klux 0,00 min 9,6 C 9,5 C
23.06.2008 08:31 15,0 C 11,1 C 69 % 1018 hPa 0,0 l/m 21,6 km/h (4 Bft) W45 260 0 min 48,6 klux 0,00 min 9,4 C 9,4 C
23.06.2008 08:46 15,7 C 12,0 C 69 % 1018 hPa 0,0 l/m 18,0 km/h (3 Bft) W22.5 260 0 min 51,1 klux 0,00 min 10,0 C 11,2 C
23.06.2008 09:01 16,3 C 12,7 C 67 % 1018 hPa 0,0 l/m 21,3 km/h (4 Bft) W22.5 260 0 min 55,6 klux 0,00 min 10,2 C 11,1 C
23.06.2008 09:16 16,1 C 13,2 C 66 % 1018 hPa 0,0 l/m 23,3 km/h (4 Bft) W22.5 260 0 min 59,3 klux 0,00 min 9,7 C 10,4 C
23.06.2008 09:32 16,3 C 13,3 C 63 % 1019 hPa 0,0 l/m 29,5 km/h (5 Bft) W-SW45 255 16 min 62,5 klux 0,00 min 9,2 C 9,6 C
23.06.2008 09:47 16,5 C 13,8 C 63 % 1019 hPa 0,0 l/m 24,4 km/h (4 Bft) W22.5 260 15 min 65,7 klux 0,00 min 9,4 C 10,8 C
23.06.2008 10:01 16,8 C 14,0 C 64 % 1019 hPa 0,0 l/m 20,9 km/h (4 Bft) W-SW45 250 14 min 68,7 klux 0,00 min 10,0 C 11,9 C
23.06.2008 10:16 17,1 C 14,3 C 63 % 1019 hPa 0,0 l/m 24,1 km/h (4 Bft) W-SW45 240 15 min 71,4 klux 0,00 min 10,0 C 11,6 C
23.06.2008 10:31 17,3 C 14,7 C 61 % 1019 hPa 0,0 l/m 23,5 km/h (4 Bft) W-SW67.5 255 15 min 74,6 klux 0,00 min 9,7 C 12,0 C
23.06.2008 10:46 17,5 C 15,3 C 58 % 1019 hPa 0,0 l/m 17,4 km/h (3 Bft) W22.5 260 15 min 77,3 klux 0,00 min 9,1 C 13,6 C
23.06.2008 11:01 18,2 C 15,9 C 58 % 1019 hPa 0,0 l/m 25,5 km/h (4 Bft) W-SW45 250 15 min 80,4 klux 0,00 min 9,8 C 12,9 C
23.06.2008 11:17 18,4 C 16,5 C 56 % 1019 hPa 0,0 l/m 22,0 km/h (4 Bft) W45 260 16 min 82,8 klux 0,00 min 9,5 C 13,7 C
23.06.2008 11:32 19,2 C 17,5 C 50 % 1019 hPa 0,0 l/m 17,8 km/h (3 Bft) SW67.5 235 15 min 85,0 klux 0,00 min 8,5 C 15,6 C
23.06.2008 11:47 19,2 C 18,0 C 54 % 1019 hPa 0,0 l/m 20,8 km/h (4 Bft) W22.5 265 15 min 86,8 klux 0,00 min 9,7 C 15,0 C
23.06.2008 12:01 19,6 C 18,4 C 53 % 1019 hPa 0,0 l/m 18,3 km/h (3 Bft) W-SW45 250 14 min 88,6 klux 0,00 min 9,8 C 16,0 C
23.06.2008 12:16 19,6 C 18,6 C 55 % 1019 hPa 0,0 l/m 21,2 km/h (4 Bft) W-SW45 245 15 min 90,1 klux 0,00 min 10,3 C 15,5 C
23.06.2008 12:31 19,3 C 19,1 C 55 % 1019 hPa 0,0 l/m 19,3 km/h (3 Bft) W45 260 15 min 91,7 klux 0,00 min 10,0 C 15,4 C
23.06.2008 12:46 19,2 C 19,4 C 51 % 1019 hPa 0,0 l/m 25,8 km/h (4 Bft) W-SW67.5 245 15 min 94,5 klux 0,00 min 8,8 C 14,2 C
23.06.2008 13:02 19,0 C 20,3 C 51 % 1019 hPa 0,0 l/m 19,0 km/h (3 Bft) W22.5 270 16 min 95,2 klux 0,00 min 8,6 C 15,1 C
23.06.2008 13:17 19,1 C 20,9 C 46 % 1019 hPa 0,0 l/m 26,3 km/h (4 Bft) W-SW67.5 240 15 min 95,9 klux 0,00 min 7,2 C 14,0 C
23.06.2008 13:32 18,9 C 21,6 C 45 % 1019 hPa 0,0 l/m 24,5 km/h (4 Bft) W22.5 270 15 min 95,6 klux 0,00 min 6,7 C 14,0 C
23.06.2008 13:46 19,0 C 22,1 C 50 % 1020 hPa 0,0 l/m 21,1 km/h (4 Bft) W22.5 270 14 min 102 klux 0,00 min 8,3 C 14,7 C
23.06.2008 14:01 19,6 C 23,1 C 50 % 1020 hPa 0,0 l/m 20,0 km/h (4 Bft) W22.5 260 15 min 113 klux 0,00 min 8,9 C 15,7 C
23.06.2008 14:16 20,1 C 23,7 C 43 % 1019 hPa 0,0 l/m 19,3 km/h (3 Bft) W22.5 265 15 min 85,0 klux 0,00 min 7,1 C 16,5 C
23.06.2008 14:31 20,4 C 24,2 C 45 % 1019 hPa 0,0 l/m 17,6 km/h (3 Bft) W22.5 265 15 min 122 klux 0,00 min 8,1 C 17,2 C
23.06.2008 14:46 20,8 C 25,1 C 47 % 1019 hPa 0,0 l/m 24,1 km/h (4 Bft) W45 260 15 min 110 klux 0,00 min 9,1 C 16,6 C
23.06.2008 15:02 20,6 C 26,0 C 46 % 1019 hPa 0,0 l/m 19,1 km/h (3 Bft) W67.5 260 16 min 100 klux 0,00 min 8,6 C 17,1 C
23.06.2008 15:17 20,0 C 26,5 C 47 % 1019 hPa 0,0 l/m 15,1 km/h (3 Bft) W-SW45 255 15 min 96,3 klux 0,00 min 8,3 C 17,2 C
23.06.2008 15:31 20,1 C 27,6 C 49 % 1019 hPa 0,0 l/m 14,5 km/h (3 Bft) W-SW22.5 255 14 min 97,7 klux 0,00 min 9,0 C 17,5 C
23.06.2008 15:46 20,0 C 25,4 C 48 % 1019 hPa 0,0 l/m 16,5 km/h (3 Bft) W22.5 260 0 min 47,8 klux 0,00 min 8,7 C 16,9 C
23.06.2008 16:01 19,7 C 24,4 C 49 % 1019 hPa 0,0 l/m 15,5 km/h (3 Bft) W-NW67.5 300 15 min 68,2 klux 0,00 min 8,7 C 16,8 C
23.06.2008 16:16 20,1 C 26,1 C 48 % 1019 hPa 0,0 l/m 15,8 km/h (3 Bft) W-SW22.5 255 15 min 85,2 klux 0,00 min 8,7 C 17,2 C
23.06.2008 16:31 20,6 C 28,7 C 46 % 1019 hPa 0,0 l/m 16,1 km/h (3 Bft) S-SW45 205 15 min 82,1 klux 0,00 min 8,6 C 17,7 C
23.06.2008 16:47 20,6 C 29,1 C 44 % 1019 hPa 0,0 l/m 9,3 km/h (2 Bft) W22.5 270 16 min 82,3 klux 0,00 min 7,9 C 19,5 C
23.06.2008 17:02 20,5 C 29,3 C 44 % 1019 hPa 0,0 l/m 11,4 km/h (2 Bft) SW22.5 230 15 min 90,9 klux 0,00 min 7,8 C 18,8 C
23.06.2008 17:17 20,6 C 29,8 C 44 % 1019 hPa 0,0 l/m 14,0 km/h (3 Bft) W45 265 15 min 74,8 klux 0,00 min 7,9 C 18,2 C
23.06.2008 17:31 20,6 C 29,4 C 44 % 1019 hPa 0,0 l/m 11,6 km/h (2 Bft) W22.5 265 14 min 71,6 klux 0,00 min 7,9 C 18,8 C
23.06.2008 17:46 20,6 C 30,5 C 45 % 1019 hPa 0,0 l/m 11,6 km/h (2 Bft) W22.5 270 15 min 68,6 klux 0,00 min 8,2 C 18,8 C
23.06.2008 18:01 20,7 C 31,1 C 43 % 1018 hPa 0,0 l/m 12,0 km/h (2 Bft) W22.5 270 15 min 65,6 klux 0,00 min 7,7 C 18,8 C
23.06.2008 18:16 20,4 C 31,5 C 42 % 1018 hPa 0,0 l/m 13,7 km/h (3 Bft) NW67.5 320 0 min 59,7 klux 0,00 min 7,1 C 18,0 C
23.06.2008 18:32 20,1 C 30,9 C 42 % 1018 hPa 0,0 l/m 7,2 km/h (2 Bft) NW67.5 310 0 min 56,7 klux 0,00 min 6,8 C 19,8 C
23.06.2008 18:47 20,0 C 28,6 C 44 % 1018 hPa 0,0 l/m 11,3 km/h (2 Bft) W22.5 265 0 min 48,1 klux 0,00 min 7,4 C 18,2 C
23.06.2008 19:02 19,7 C 25,6 C 47 % 1019 hPa 0,0 l/m 9,5 km/h (2 Bft) W22.5 265 0 min 31,7 klux 0,00 min 8,1 C 18,5 C
23.06.2008 19:16 19,8 C 24,8 C 47 % 1019 hPa 0,0 l/m 10,1 km/h (2 Bft) W22.5 260 0 min 37,9 klux 0,00 min 8,2 C 18,4 C
23.06.2008 19:31 19,8 C 23,6 C 46 % 1019 hPa 0,0 l/m 9,8 km/h (2 Bft) W22.5 265 0 min 27,9 klux 0,00 min 7,8 C 18,5 C
23.06.2008 19:46 19,8 C 23,5 C 46 % 1018 hPa 0,0 l/m 7,4 km/h (2 Bft) W 270 0 min 31,2 klux 0,00 min 7,8 C 19,4 C
23.06.2008 20:01 19,6 C 23,5 C 45 % 1018 hPa 0,0 l/m 3,3 km/h (1 Bft) NW22.5 315 0 min 35,0 klux 0,00 min 7,3 C 19,6 C
23.06.2008 20:16 19,2 C 24,0 C 45 % 1018 hPa 0,0 l/m 2,0 km/h (1 Bft) W-NW 295 0 min 34,3 klux 0,00 min 7,0 C 19,2 C
23.06.2008 20:32 18,8 C 21,2 C 46 % 1018 hPa 0,0 l/m 3,7 km/h (1 Bft) N-NW 340 0 min 12,8 klux 0,00 min 6,9 C 18,8 C
23.06.2008 20:47 17,9 C 19,3 C 52 % 1018 hPa 0,0 l/m 11,9 km/h (2 Bft) NO22.5 35 0 min 13,8 klux 0,00 min 7,9 C 15,6 C
23.06.2008 21:02 16,8 C 17,0 C 55 % 1018 hPa 0,0 l/m 15,5 km/h (3 Bft) NO45 35 0 min 7,43 klux 0,00 min 7,7 C 13,2 C
23.06.2008 21:16 16,2 C 15,6 C 58 % 1018 hPa 0,0 l/m 11,3 km/h (2 Bft) N-NO22.5 25 0 min 3,43 klux 0,00 min 7,9 C 13,9 C
23.06.2008 21:31 15,2 C 13,7 C 59 % 1018 hPa 0,0 l/m 13,1 km/h (3 Bft) NO22.5 40 0 min 2,09 klux 0,00 min 7,2 C 12,1 C
23.06.2008 21:46 14,5 C 12,6 C 59 % 1018 hPa 0,0 l/m 5,0 km/h (1 Bft) NO22.5 40 0 min 1,40 klux 0,00 min 6,6 C 14,5 C
23.06.2008 22:01 13,8 C 11,8 C 61 % 1018 hPa 0,0 l/m 4,7 km/h (1 Bft) N-NO 25 0 min 687 lux 0,00 min 6,4 C 13,8 C
23.06.2008 22:17 13,5 C 11,2 C 63 % 1018 hPa 0,0 l/m 5,4 km/h (1 Bft) N-NO 25 0 min 199 lux 0,00 min 6,6 C 13,5 C
23.06.2008 22:32 12,8 C 10,9 C 66 % 1019 hPa 0,0 l/m 0,0 km/h (0 Bft) N-NO 25 0 min 30 lux 0,00 min 6,6 C 12,8 C
23.06.2008 22:47 12,4 C 10,7 C 68 % 1019 hPa 0,0 l/m 3,5 km/h (1 Bft) N-NO 20 0 min 7 lux 0,00 min 6,7 C 12,4 C
23.06.2008 23:01 12,4 C 10,6 C 69 % 1019 hPa 0,0 l/m 0,0 km/h (0 Bft) N-NO 20 0 min 0 lux 0,00 min 6,9 C 12,4 C
23.06.2008 23:16 12,1 C 10,5 C 70 % 1019 hPa 0,0 l/m 0,4 km/h (0 Bft) N-NO 20 0 min 0 lux 0,00 min 6,8 C 12,1 C
23.06.2008 23:31 12,1 C 10,4 C 72 % 1018 hPa 0,0 l/m 5,7 km/h (1 Bft) N-NO 15 0 min 0 lux 0,00 min 7,2 C 12,1 C
23.06.2008 23:46 12,3 C 10,6 C 72 % 1018 hPa 0,0 l/m 6,6 km/h (2 Bft) N22.5 10 0 min 0 lux 0,00 min 7,4 C 12,2 C
_ Min-Zeit 05:46 06:17 18:16 00:01 - 22:32 - - - - - 05:16 04:01
Minimum _ 7,1 C 5,1 C 42 % 1015 hPa - 0,0 km/h (0 Bft) - - - - - 5,3 C 3,8 C
_ Max-Zeit 14:46 18:16 00:01 13:46 00:16 09:32 - - 09:32 14:31 00:16 00:01 18:32
Maximum _ 20,8 C 31,5 C 92 % 1020 hPa 10,0 l/m 29,5 km/h
W-SW (5 Bft)
- - 16 min 122 klux 15,00 min 15,6 C 19,8 C
Durchschnitt _ 15,9 C 16,6 C 65 % 1018 hPa #10,0 l/m 15,0 km/h (3 Bft) W - #8:30 h 40,3 klux #15 min. 8,8 C 12,7 C